Time;durP1;ratioP1;P1;durP2;ratioP2;P2;SDS_P1;SDS_P2;PMS_P1;PMS_P2;Temp;Humidity;BMP_temperature;BMP_pressure;BME280_temperature;BME280_humidity;BME280_pressure;Samples;Min_cycle;Max_cycle;Signal;HPM_P1;HPM_P2
2021/12/11 00:00:45;;;;;;;4.83;3.13;;;5.70;99.90;;;;;;5056208;28;20247;-76
2021/12/11 00:03:15;;;;;;;5.43;3.07;;;5.80;99.90;;;;;;5056590;28;20204;-76
2021/12/11 00:05:46;;;;;;;4.47;3.00;;;5.70;99.90;;;;;;5055996;28;20630;-76
2021/12/11 00:08:17;;;;;;;4.13;2.63;;;5.70;99.90;;;;;;5056611;28;20310;-76
2021/12/11 00:10:48;;;;;;;4.77;3.00;;;5.70;99.90;;;;;;5056660;28;20199;-76
2021/12/11 00:13:21;;;;;;;7.43;2.90;;;5.70;99.90;;;;;;5055956;28;20243;-76
2021/12/11 00:15:49;;;;;;;3.83;2.47;;;5.70;99.90;;;;;;5056136;28;20677;-76
2021/12/11 00:18:20;;;;;;;4.27;2.77;;;5.70;99.90;;;;;;5055878;28;20197;-76
2021/12/11 00:20:52;;;;;;;4.53;3.00;;;5.60;99.90;;;;;;5055975;28;20220;-76
2021/12/11 00:23:22;;;;;;;4.23;2.87;;;5.70;99.90;;;;;;5056092;28;20204;-76
2021/12/11 00:25:50;;;;;;;7.63;3.70;;;5.70;99.90;;;;;;5055369;28;20208;-76
2021/12/11 00:28:17;;;;;;;6.10;3.43;;;5.70;99.90;;;;;;5055942;28;20200;-76
2021/12/11 00:30:45;;;;;;;6.07;3.47;;;5.70;99.90;;;;;;5055353;28;20211;-76
2021/12/11 00:33:17;;;;;;;9.03;4.13;;;5.70;99.90;;;;;;5055605;28;20243;-76
2021/12/11 00:35:45;;;;;;;8.87;3.83;;;5.70;99.90;;;;;;5055746;28;20546;-76
2021/12/11 00:38:16;;;;;;;9.50;4.10;;;5.80;99.90;;;;;;5055663;28;20228;-76
2021/12/11 00:40:45;;;;;;;6.33;3.97;;;5.90;99.90;;;;;;5055344;28;20231;-76
2021/12/11 00:43:20;;;;;;;7.77;4.03;;;5.80;99.90;;;;;;5055531;28;20200;-77
2021/12/11 00:45:49;;;;;;;6.30;3.77;;;5.80;99.90;;;;;;5055743;28;20743;-76
2021/12/11 00:48:20;;;;;;;8.03;4.03;;;5.70;99.90;;;;;;5055532;28;20215;-76
2021/12/11 00:50:53;;;;;;;6.60;3.93;;;5.70;99.90;;;;;;5055529;28;20207;-76
2021/12/11 00:53:24;;;;;;;6.50;3.93;;;5.60;99.90;;;;;;5055269;28;20231;-76
2021/12/11 00:55:53;;;;;;;9.47;4.77;;;5.70;99.90;;;;;;5055034;28;20223;-76
2021/12/11 00:58:24;;;;;;;5.43;3.30;;;5.70;99.90;;;;;;5055522;28;20204;-76
2021/12/11 01:00:55;;;;;;;8.47;4.40;;;5.60;99.90;;;;;;5055503;28;20210;-76
2021/12/11 01:03:25;;;;;;;7.03;4.20;;;5.60;99.90;;;;;;5054811;28;20211;-76
2021/12/11 01:05:55;;;;;;;8.47;4.10;;;5.60;99.90;;;;;;5055014;28;20204;-76
2021/12/11 01:08:28;;;;;;;8.43;4.33;;;5.50;99.90;;;;;;5055034;28;20204;-76
2021/12/11 01:11:02;;;;;;;6.50;3.97;;;5.60;99.90;;;;;;5054919;28;20646;-76
2021/12/11 01:13:33;;;;;;;7.10;4.13;;;5.60;99.90;;;;;;5055116;28;20235;-76
2021/12/11 01:16:11;;;;;;;8.13;4.40;;;5.60;99.90;;;;;;5055005;28;20254;-76
2021/12/11 01:18:40;;;;;;;8.87;4.27;;;5.70;99.90;;;;;;5065250;28;20290;-76
2021/12/11 01:21:30;;;;;;;7.67;4.20;;;5.70;99.90;;;;;;5075093;28;20203;-76
2021/12/11 01:24:10;;;;;;;8.40;4.23;;;5.60;99.90;;;;;;5075043;28;20235;-76
2021/12/11 01:26:41;;;;;;;10.07;5.20;;;5.70;99.90;;;;;;5074472;28;20226;-76
2021/12/11 01:29:10;;;;;;;7.57;4.10;;;5.60;99.90;;;;;;5055675;28;20211;-76
2021/12/11 01:31:37;;;;;;;8.83;4.10;;;5.70;99.90;;;;;;5054163;28;20223;-76
2021/12/11 01:34:06;;;;;;;9.43;4.47;;;5.80;99.90;;;;;;5054879;28;20258;-76
2021/12/11 01:36:34;;;;;;;7.37;4.63;;;5.80;99.90;;;;;;5054396;28;20323;-76
2021/12/11 01:39:05;;;;;;;6.87;3.73;;;5.70;99.90;;;;;;5054650;28;20662;-76
2021/12/11 01:41:32;;;;;;;6.53;4.17;;;5.80;99.90;;;;;;5054391;28;20204;-76
2021/12/11 01:44:04;;;;;;;9.20;4.40;;;5.50;99.90;;;;;;5060621;28;20207;-76
2021/12/11 01:46:32;;;;;;;8.93;4.73;;;5.40;99.90;;;;;;5065844;28;20293;-75
2021/12/11 01:49:04;;;;;;;6.77;3.40;;;5.40;99.90;;;;;;5074291;28;20207;-76
2021/12/11 01:51:37;;;;;;;7.87;3.90;;;5.50;99.90;;;;;;5073609;28;20210;-75
2021/12/11 01:54:11;;;;;;;7.70;4.47;;;5.50;99.90;;;;;;5074071;28;20235;-75
2021/12/11 01:56:41;;;;;;;8.43;4.03;;;5.60;99.90;;;;;;5074564;28;20223;-76
2021/12/11 01:59:11;;;;;;;8.00;4.23;;;5.60;99.90;;;;;;5074309;28;20203;-76
2021/12/11 02:01:42;;;;;;;8.30;3.90;;;5.50;99.90;;;;;;5074046;28;20298;-76
2021/12/11 02:04:12;;;;;;;7.13;4.10;;;5.40;99.90;;;;;;5053986;28;20210;-76
2021/12/11 02:06:42;;;;;;;6.87;4.20;;;5.40;99.90;;;;;;5053969;28;20235;-76
2021/12/11 02:09:15;;;;;;;8.47;4.20;;;5.50;99.90;;;;;;5054056;28;20562;-76
2021/12/11 02:11:43;;;;;;;6.67;3.83;;;5.40;99.90;;;;;;5053711;28;20210;-76
2021/12/11 02:14:12;;;;;;;7.47;4.37;;;5.50;99.90;;;;;;5053036;28;20232;-76
2021/12/11 02:16:45;;;;;;;7.70;3.67;;;5.60;99.90;;;;;;5066894;28;20226;-75
2021/12/11 02:19:16;;;;;;;7.97;3.93;;;5.70;99.90;;;;;;5073660;28;20211;-76
2021/12/11 02:21:51;;;;;;;7.13;3.67;;;5.80;99.90;;;;;;5073290;28;20204;-75
2021/12/11 02:24:24;;;;;;;6.27;3.50;;;5.80;99.90;;;;;;5073513;28;20213;-76
2021/12/11 02:26:51;;;;;;;6.67;3.30;;;5.90;99.90;;;;;;5071339;28;20601;-76
2021/12/11 02:29:22;;;;;;;5.77;3.20;;;5.90;99.90;;;;;;5053310;28;20200;-76
2021/12/11 02:31:53;;;;;;;5.70;2.47;;;5.90;99.90;;;;;;5053347;28;20208;-76
2021/12/11 02:34:24;;;;;;;4.43;2.07;;;5.90;99.90;;;;;;5053514;28;20243;-76
2021/12/11 02:36:57;;;;;;;5.30;2.73;;;5.90;99.90;;;;;;5065159;28;20225;-76
2021/12/11 02:39:29;;;;;;;4.47;2.20;;;5.90;99.90;;;;;;5073513;28;20573;-76
2021/12/11 02:42:04;;;;;;;5.70;1.90;;;5.90;99.90;;;;;;5073255;28;20209;-76
2021/12/11 02:44:35;;;;;;;5.40;1.57;;;6.00;99.90;;;;;;5073517;28;20211;-76
2021/12/11 02:47:06;;;;;;;5.37;1.83;;;6.00;99.90;;;;;;5072895;28;20231;-76
2021/12/11 02:49:36;;;;;;;3.53;1.63;;;6.00;99.90;;;;;;5073375;28;20210;-75
2021/12/11 02:52:09;;;;;;;4.67;1.50;;;6.00;99.90;;;;;;5073073;28;20214;-76
2021/12/11 02:54:40;;;;;;;2.83;1.43;;;6.00;99.90;;;;;;5073404;28;20692;-76
2021/12/11 02:57:11;;;;;;;5.30;0.90;;;6.00;99.90;;;;;;5073279;28;20223;-75
2021/12/11 02:59:42;;;;;;;4.23;0.90;;;6.00;99.90;;;;;;5073111;28;20203;-75
2021/12/11 03:02:12;;;;;;;2.00;0.67;;;6.10;99.90;;;;;;5065358;28;20196;-76
2021/12/11 03:04:46;;;;;;;4.73;1.00;;;6.20;99.90;;;;;;5053194;28;20208;-76
2021/12/11 03:07:16;;;;;;;2.03;0.67;;;6.30;99.90;;;;;;5052750;28;20599;-76
2021/12/11 03:09:54;;;;;;;2.00;0.87;;;6.20;99.90;;;;;;5053120;28;20570;-76
2021/12/11 03:12:22;;;;;;;3.73;0.57;;;6.30;99.90;;;;;;5052909;28;20654;-76
2021/12/11 03:14:49;;;;;;;3.90;0.43;;;6.20;99.90;;;;;;5053013;28;20232;-76
2021/12/11 03:17:18;;;;;;;8.07;1.23;;;6.20;99.90;;;;;;5053202;28;20220;-76
2021/12/11 03:19:46;;;;;;;4.30;0.47;;;6.30;99.90;;;;;;5053109;28;20207;-76
2021/12/11 03:22:19;;;;;;;3.47;0.70;;;6.30;99.90;;;;;;5052770;28;20204;-76
2021/12/11 03:24:47;;;;;;;2.90;0.80;;;6.30;99.90;;;;;;5052973;28;20204;-75
2021/12/11 03:27:14;;;;;;;4.13;0.90;;;6.30;99.90;;;;;;5052425;28;20220;-76
2021/12/11 03:29:41;;;;;;;4.37;0.53;;;6.30;99.90;;;;;;5052469;28;20218;-76
2021/12/11 03:32:13;;;;;;;8.40;0.77;;;6.20;99.90;;;;;;5052939;28;20207;-76
2021/12/11 03:34:41;;;;;;;2.90;1.13;;;6.30;99.90;;;;;;5052806;28;20242;-76
2021/12/11 03:37:10;;;;;;;3.43;0.53;;;6.40;99.90;;;;;;5052444;28;20220;-76
2021/12/11 03:39:41;;;;;;;6.53;0.77;;;6.40;99.90;;;;;;5052843;28;20200;-76
2021/12/11 03:42:12;;;;;;;9.30;1.00;;;6.30;99.90;;;;;;5052664;28;20200;-76
2021/12/11 03:44:39;;;;;;;4.13;1.20;;;6.20;99.90;;;;;;5052373;28;20658;-76
2021/12/11 03:47:10;;;;;;;5.20;0.90;;;6.30;99.90;;;;;;5052436;28;20227;-76
2021/12/11 03:49:37;;;;;;;3.07;0.80;;;6.40;99.90;;;;;;5052704;28;20206;-76
2021/12/11 03:52:07;;;;;;;6.60;1.10;;;6.40;99.90;;;;;;5052650;28;20219;-76
2021/12/11 03:54:36;;;;;;;2.53;1.30;;;6.60;99.90;;;;;;5052758;28;20238;-76
2021/12/11 03:57:06;;;;;;;4.87;1.00;;;6.60;99.90;;;;;;5052933;28;20228;-76
2021/12/11 03:59:33;;;;;;;5.00;1.30;;;6.70;99.90;;;;;;5052608;28;20207;-76
2021/12/11 04:02:05;;;;;;;7.83;1.20;;;6.80;99.90;;;;;;5052941;28;20211;-77
2021/12/11 04:04:36;;;;;;;13.17;1.30;;;6.80;99.90;;;;;;5052574;28;20208;-76
2021/12/11 04:07:06;;;;;;;9.00;2.17;;;6.70;99.90;;;;;;5052272;28;20751;-76
2021/12/11 04:09:33;;;;;;;4.23;1.10;;;6.80;99.90;;;;;;5052122;28;20208;-76
2021/12/11 04:12:01;;;;;;;9.67;1.47;;;6.80;99.90;;;;;;5052588;28;20207;-76
2021/12/11 04:14:33;;;;;;;6.80;1.50;;;6.80;99.90;;;;;;5052556;28;20231;-76
2021/12/11 04:17:02;;;;;;;4.93;1.23;;;6.90;99.90;;;;;;5052497;28;20702;-76
2021/12/11 04:19:29;;;;;;;4.13;1.00;;;7.10;99.90;;;;;;5052732;28;20204;-76
2021/12/11 04:21:57;;;;;;;7.33;1.30;;;7.00;99.90;;;;;;5052174;28;20207;-76
2021/12/11 04:24:26;;;;;;;6.40;1.00;;;6.90;99.90;;;;;;5052407;28;20207;-76
2021/12/11 04:26:54;;;;;;;4.27;1.10;;;6.80;99.90;;;;;;5052404;28;20224;-76
2021/12/11 04:29:21;;;;;;;4.47;1.10;;;6.70;99.90;;;;;;5052396;28;20208;-76
2021/12/11 04:31:50;;;;;;;6.00;0.93;;;6.90;99.90;;;;;;5052617;28;20234;-76
2021/12/11 04:34:21;;;;;;;5.10;1.10;;;7.10;99.90;;;;;;5052068;28;20232;-76
2021/12/11 04:36:51;;;;;;;7.67;1.03;;;7.10;99.90;;;;;;5051872;28;20256;-76
2021/12/11 04:39:23;;;;;;;1.90;0.80;;;6.90;99.90;;;;;;5055752;28;20282;-75
2021/12/11 04:41:57;;;;;;;8.30;0.93;;;6.90;99.90;;;;;;5055968;28;20214;-76
2021/12/11 04:44:31;;;;;;;4.03;0.70;;;6.90;99.90;;;;;;5055680;28;20331;-76
2021/12/11 04:46:59;;;;;;;5.90;0.73;;;6.90;99.90;;;;;;5055572;28;20224;-76
2021/12/11 04:49:33;;;;;;;9.50;1.03;;;6.90;99.90;;;;;;5055734;28;20304;-75
2021/12/11 04:52:07;;;;;;;4.43;0.70;;;7.00;99.90;;;;;;5055870;28;20204;-76
2021/12/11 04:54:49;;;;;;;4.17;0.70;;;6.90;99.90;;;;;;5055153;28;20258;-75
2021/12/11 05:00:32;;;;;;;4.90;0.90;;;6.90;99.90;;;;;;4974036;28;20624;-76
2021/12/11 05:03:27;;;;;;;2.77;0.70;;;6.80;99.90;;;;;;4974610;28;20214;-76
2021/12/11 05:06:13;;;;;;;6.73;0.60;;;6.70;99.90;;;;;;5034096;28;20539;-76
2021/12/11 05:09:15;;;;;;;6.57;0.80;;;6.80;99.90;;;;;;5054566;28;20204;-76
2021/12/11 05:11:52;;;;;;;4.73;1.30;;;6.80;99.90;;;;;;5055133;28;20212;-76
2021/12/11 05:14:22;;;;;;;6.60;1.43;;;6.80;99.90;;;;;;5055158;28;20257;-76
2021/12/11 05:16:49;;;;;;;5.37;1.47;;;6.80;99.90;;;;;;5054920;28;20227;-76
2021/12/11 05:19:17;;;;;;;4.40;1.43;;;6.70;99.90;;;;;;5055494;28;20211;-76
2021/12/11 05:21:45;;;;;;;5.13;1.60;;;6.70;99.90;;;;;;5055049;28;20200;-76
2021/12/11 05:24:14;;;;;;;9.50;1.93;;;6.70;99.90;;;;;;5055100;28;20212;-75
2021/12/11 05:26:41;;;;;;;8.83;2.40;;;6.80;99.90;;;;;;5054811;28;20316;-75
2021/12/11 05:29:08;;;;;;;12.53;2.57;;;6.80;99.90;;;;;;5055228;28;20200;-75
2021/12/11 05:31:36;;;;;;;10.03;1.80;;;6.90;99.90;;;;;;5054755;28;21228;-76
2021/12/11 05:34:05;;;;;;;8.27;2.27;;;7.00;99.90;;;;;;5054664;28;20231;-76
2021/12/11 05:36:35;;;;;;;7.53;2.10;;;6.90;99.90;;;;;;5054472;28;20720;-76
2021/12/11 05:39:06;;;;;;;7.97;3.03;;;7.00;99.90;;;;;;5054852;28;20636;-76
2021/12/11 05:41:33;;;;;;;5.97;2.70;;;7.10;99.90;;;;;;5054821;28;20204;-76
2021/12/11 05:44:00;;;;;;;10.63;2.97;;;7.10;99.90;;;;;;5054367;28;20208;-76
2021/12/11 05:46:27;;;;;;;12.30;3.30;;;7.10;99.90;;;;;;5054511;28;20231;-76
2021/12/11 05:48:54;;;;;;;10.97;2.60;;;7.00;99.90;;;;;;5053917;28;20202;-76
2021/12/11 05:51:23;;;;;;;9.27;3.60;;;6.90;99.90;;;;;;5054147;28;20210;-76
2021/12/11 05:53:55;;;;;;;11.27;2.80;;;6.90;99.90;;;;;;5053873;28;20211;-76
2021/12/11 05:56:23;;;;;;;8.07;2.53;;;6.90;99.90;;;;;;5054194;28;20701;-76
2021/12/11 05:58:57;;;;;;;7.87;2.00;;;6.80;99.90;;;;;;5054490;28;20211;-76
2021/12/11 06:01:29;;;;;;;6.10;1.87;;;6.80;99.90;;;;;;5054295;28;20210;-76
2021/12/11 06:03:56;;;;;;;9.53;1.90;;;6.80;99.90;;;;;;5054488;28;20192;-76
2021/12/11 06:06:23;;;;;;;4.43;1.70;;;6.70;99.90;;;;;;5054094;28;20219;-76
2021/12/11 06:08:52;;;;;;;4.40;1.10;;;6.70;99.90;;;;;;5054465;28;20211;-76
2021/12/11 06:11:19;;;;;;;4.67;1.30;;;6.70;99.90;;;;;;5053950;28;20538;-76
2021/12/11 06:13:46;;;;;;;4.50;1.53;;;6.70;99.90;;;;;;5054054;28;20218;-76
2021/12/11 06:16:14;;;;;;;5.50;1.40;;;6.70;99.90;;;;;;5053809;28;20236;-76
2021/12/11 06:18:42;;;;;;;8.00;1.70;;;6.60;99.90;;;;;;5053784;28;20208;-76
2021/12/11 06:21:09;;;;;;;14.43;1.33;;;6.60;99.90;;;;;;5053521;28;20210;-76
2021/12/11 06:23:36;;;;;;;6.93;1.30;;;6.50;99.90;;;;;;5053649;28;20204;-76
2021/12/11 06:26:05;;;;;;;5.57;1.30;;;6.40;99.90;;;;;;5054116;28;20579;-76
2021/12/11 06:28:32;;;;;;;7.77;1.50;;;6.30;99.90;;;;;;5053271;28;20204;-76
2021/12/11 06:31:02;;;;;;;11.70;2.33;;;6.20;99.90;;;;;;5053166;28;20660;-77
2021/12/11 06:33:31;;;;;;;8.67;2.30;;;6.10;99.90;;;;;;5053679;28;20204;-76
2021/12/11 06:36:01;;;;;;;8.27;1.97;;;6.20;99.90;;;;;;5053343;28;20266;-76
2021/12/11 06:38:32;;;;;;;7.93;1.80;;;6.30;99.90;;;;;;5053794;28;20658;-76
2021/12/11 06:40:59;;;;;;;9.10;2.20;;;6.20;99.90;;;;;;5053303;28;20204;-77
2021/12/11 06:43:27;;;;;;;20.57;2.97;;;6.30;99.90;;;;;;5053096;28;20662;-76
2021/12/11 06:45:55;;;;;;;8.10;2.30;;;6.30;99.90;;;;;;5053171;28;20658;-76
2021/12/11 06:48:21;;;;;;;13.57;2.67;;;6.30;99.90;;;;;;5053555;28;20204;-76
2021/12/11 06:50:49;;;;;;;6.37;2.30;;;6.20;99.90;;;;;;5053149;28;20204;-76
2021/12/11 06:53:22;;;;;;;7.17;2.10;;;6.10;99.90;;;;;;5053361;28;20654;-76
2021/12/11 06:55:49;;;;;;;9.70;1.60;;;6.00;99.90;;;;;;5052992;28;20236;-76
2021/12/11 06:58:16;;;;;;;16.57;1.97;;;5.90;99.90;;;;;;5052810;28;20220;-77
2021/12/11 07:00:44;;;;;;;5.40;1.10;;;5.70;99.90;;;;;;5052779;28;20294;-76
2021/12/11 07:03:11;;;;;;;11.50;1.33;;;5.60;99.90;;;;;;5053142;28;20208;-77
2021/12/11 07:05:37;;;;;;;11.37;1.57;;;5.60;99.90;;;;;;5052817;28;20216;-76
2021/12/11 07:08:06;;;;;;;11.77;1.37;;;5.50;99.90;;;;;;5065570;28;20570;-76
2021/12/11 07:10:34;;;;;;;2.60;0.90;;;5.60;99.90;;;;;;5072506;28;20207;-76
2021/12/11 07:13:01;;;;;;;4.80;1.13;;;5.60;99.90;;;;;;5072215;28;20211;-76
2021/12/11 07:15:28;;;;;;;7.63;1.37;;;5.60;99.90;;;;;;5072652;28;20242;-76
2021/12/11 07:17:57;;;;;;;4.27;1.10;;;5.50;99.90;;;;;;5072533;28;20716;-76
2021/12/11 07:20:24;;;;;;;9.50;0.93;;;5.40;99.90;;;;;;5072535;28;20208;-76
2021/12/11 07:22:51;;;;;;;7.90;1.10;;;5.30;99.90;;;;;;5072589;28;20229;-76
2021/12/11 07:25:31;;;;;;;7.10;1.20;;;5.40;99.90;;;;;;5072507;28;20662;-76
2021/12/11 07:28:01;;;;;;;6.20;1.47;;;5.20;99.90;;;;;;5065719;28;20698;-76
2021/12/11 07:30:28;;;;;;;3.03;1.20;;;5.20;99.90;;;;;;5052230;28;20219;-77
2021/12/11 07:32:58;;;;;;;11.13;2.20;;;5.20;99.90;;;;;;5052177;28;20670;-76
2021/12/11 07:35:26;;;;;;;7.23;1.97;;;5.20;99.90;;;;;;5052136;28;20228;-76
2021/12/11 07:37:53;;;;;;;9.77;1.13;;;5.20;99.90;;;;;;5052298;28;20228;-76
2021/12/11 07:40:22;;;;;;;4.33;1.10;;;5.00;99.90;;;;;;5052289;28;20200;-76
2021/12/11 07:42:50;;;;;;;3.37;1.10;;;5.00;99.90;;;;;;5052509;28;20208;-76
2021/12/11 07:45:17;;;;;;;4.20;1.20;;;5.00;99.90;;;;;;5052203;28;20210;-77
2021/12/11 07:47:44;;;;;;;4.93;1.47;;;4.90;99.90;;;;;;5052384;28;20224;-76
2021/12/11 07:50:13;;;;;;;3.37;1.47;;;4.90;99.90;;;;;;5052136;28;20562;-76
2021/12/11 07:52:41;;;;;;;5.30;1.47;;;4.90;99.90;;;;;;5051839;28;20206;-76
2021/12/11 07:55:10;;;;;;;8.17;1.63;;;4.90;99.90;;;;;;5052251;28;20226;-76
2021/12/11 07:57:37;;;;;;;2.33;1.33;;;4.80;99.90;;;;;;5063657;28;20643;-76
2021/12/11 08:00:05;;;;;;;4.57;1.27;;;4.90;99.90;;;;;;5072257;28;20203;-76
2021/12/11 08:02:32;;;;;;;4.70;1.30;;;4.80;99.90;;;;;;5065598;28;20207;-76
2021/12/11 08:04:59;;;;;;;7.03;1.33;;;4.80;99.90;;;;;;5065385;28;20593;-76
2021/12/11 08:07:27;;;;;;;10.10;1.70;;;4.80;99.90;;;;;;5058634;28;20215;-76
2021/12/11 08:09:54;;;;;;;9.53;1.73;;;5.00;99.90;;;;;;5067865;28;20202;-76
2021/12/11 08:12:21;;;;;;;6.17;1.60;;;5.00;99.90;;;;;;5053423;28;20657;-76
2021/12/11 08:14:49;;;;;;;7.53;1.47;;;4.90;99.90;;;;;;5075046;28;20545;-76
2021/12/11 08:17:17;;;;;;;8.53;1.60;;;4.90;99.90;;;;;;5074740;28;20314;-77
2021/12/11 08:19:44;;;;;;;10.60;1.90;;;4.90;99.90;;;;;;5074796;28;20222;-76
2021/12/11 08:22:11;;;;;;;2.97;1.33;;;5.00;99.90;;;;;;5070797;28;20283;-76
2021/12/11 08:24:39;;;;;;;7.00;1.50;;;5.00;99.90;;;;;;5055104;28;20204;-76
2021/12/11 08:27:11;;;;;;;8.30;1.43;;;5.00;99.90;;;;;;5054537;28;20705;-76
2021/12/11 08:29:38;;;;;;;3.57;1.43;;;5.00;99.90;;;;;;5055094;28;20223;-77
2021/12/11 08:32:06;;;;;;;7.30;1.90;;;5.10;99.90;;;;;;5064897;28;20211;-76
2021/12/11 08:34:33;;;;;;;8.30;1.60;;;5.10;99.90;;;;;;5074591;28;20210;-77
2021/12/11 08:37:01;;;;;;;8.13;1.70;;;5.10;99.90;;;;;;5074172;28;20243;-76
2021/12/11 08:39:29;;;;;;;2.27;1.40;;;5.10;99.90;;;;;;5073322;28;20214;-76
2021/12/11 08:42:00;;;;;;;4.80;1.60;;;5.10;99.90;;;;;;5073975;28;20683;-76
2021/12/11 08:44:29;;;;;;;6.83;1.80;;;5.10;99.90;;;;;;5073801;28;20206;-76
2021/12/11 08:47:01;;;;;;;5.33;1.20;;;5.20;99.90;;;;;;5073793;28;20318;-77
2021/12/11 08:49:31;;;;;;;10.10;1.83;;;5.10;99.90;;;;;;5074403;28;20207;-77
2021/12/11 08:52:03;;;;;;;5.97;1.93;;;5.10;99.90;;;;;;5074417;28;20215;-76
2021/12/11 08:54:31;;;;;;;5.00;1.90;;;5.00;99.90;;;;;;5067906;28;20202;-77
2021/12/11 08:57:04;;;;;;;5.50;1.80;;;5.20;99.90;;;;;;5074405;28;20231;-77
2021/12/11 08:59:33;;;;;;;4.07;2.27;;;5.20;99.90;;;;;;5074977;28;20209;-76
2021/12/11 09:02:08;;;;;;;4.27;1.80;;;5.20;99.90;;;;;;5074958;28;20677;-77
2021/12/11 09:04:39;;;;;;;6.67;2.07;;;5.30;99.90;;;;;;5074820;28;20205;-77
2021/12/11 09:07:10;;;;;;;6.57;2.37;;;5.30;99.90;;;;;;5073852;28;20250;-76
2021/12/11 09:09:43;;;;;;;8.20;2.07;;;5.40;99.90;;;;;;5074448;28;20207;-77
2021/12/11 09:12:17;;;;;;;5.60;1.93;;;5.50;99.90;;;;;;5074186;28;20215;-76
2021/12/11 09:14:48;;;;;;;5.83;1.63;;;5.50;99.90;;;;;;5074723;28;20202;-77
2021/12/11 09:17:19;;;;;;;10.07;1.43;;;5.50;99.90;;;;;;5073261;28;20288;-77
2021/12/11 09:19:51;;;;;;;10.80;3.00;;;5.60;99.90;;;;;;5074418;28;20239;-76
2021/12/11 09:22:22;;;;;;;5.93;1.80;;;5.60;99.90;;;;;;5071555;28;20749;-76
2021/12/11 09:24:56;;;;;;;4.53;1.80;;;5.70;99.90;;;;;;5073275;28;20199;-77
2021/12/11 09:27:27;;;;;;;10.77;2.00;;;5.70;99.90;;;;;;5073687;28;20230;-77
2021/12/11 09:29:58;;;;;;;3.37;1.57;;;5.70;99.90;;;;;;5074480;28;20211;-76
2021/12/11 09:32:29;;;;;;;4.07;2.00;;;5.70;99.90;;;;;;5074434;28;20676;-77
2021/12/11 09:35:01;;;;;;;4.80;1.80;;;5.80;99.90;;;;;;5074077;28;20666;-77
2021/12/11 09:37:30;;;;;;;6.20;1.73;;;5.70;99.90;;;;;;5073587;28;20234;-77
2021/12/11 09:39:59;;;;;;;5.73;1.97;;;5.80;99.90;;;;;;5062586;28;20716;-77
2021/12/11 09:42:26;;;;;;;9.73;2.10;;;5.80;99.90;;;;;;5053180;28;20235;-77
2021/12/11 09:44:58;;;;;;;7.10;2.10;;;5.80;99.90;;;;;;5053335;28;20539;-77
2021/12/11 09:47:30;;;;;;;5.27;2.37;;;6.30;99.90;;;;;;5071404;28;20241;-76
2021/12/11 09:50:04;;;;;;;7.13;3.37;;;6.20;99.90;;;;;;5073288;28;20273;-78
2021/12/11 09:52:33;;;;;;;12.53;2.97;;;6.20;99.90;;;;;;5073843;28;20205;-77
2021/12/11 09:55:05;;;;;;;7.37;2.33;;;6.30;99.90;;;;;;5072496;28;20305;-77
2021/12/11 09:57:36;;;;;;;7.10;1.97;;;6.20;99.90;;;;;;5054130;28;20243;-77
2021/12/11 10:00:09;;;;;;;8.57;2.33;;;6.20;99.90;;;;;;5054588;28;20215;-77
2021/12/11 10:02:35;;;;;;;6.53;2.20;;;6.40;99.90;;;;;;5054465;28;20204;-77
2021/12/11 10:05:17;;;;;;;8.47;2.37;;;6.40;99.90;;;;;;5054379;28;20204;-78
2021/12/11 10:08:01;;;;;;;5.77;1.90;;;6.40;99.90;;;;;;5053911;28;20224;-76
2021/12/11 10:10:28;;;;;;;5.83;2.30;;;6.40;99.90;;;;;;5054475;28;20300;-76
2021/12/11 10:12:58;;;;;;;13.40;3.30;;;6.30;99.90;;;;;;5054150;28;20196;-77
2021/12/11 10:15:29;;;;;;;4.13;1.90;;;6.30;99.90;;;;;;5053910;28;20211;-77
2021/12/11 10:17:59;;;;;;;4.97;2.53;;;6.30;99.90;;;;;;5054075;28;20225;-78
2021/12/11 10:20:37;;;;;;;5.87;2.60;;;6.30;99.90;;;;;;5053829;28;20211;-77
2021/12/11 10:23:07;;;;;;;8.40;2.40;;;6.30;99.90;;;;;;5053457;28;20206;-77
2021/12/11 10:25:37;;;;;;;6.37;1.90;;;6.30;99.90;;;;;;5054066;28;20212;-78
2021/12/11 10:28:06;;;;;;;5.73;2.83;;;6.20;99.90;;;;;;5053573;28;20242;-77
2021/12/11 10:30:41;;;;;;;10.33;2.47;;;6.30;99.90;;;;;;5054305;28;20238;-78
2021/12/11 10:33:09;;;;;;;5.60;2.27;;;6.30;99.90;;;;;;5053468;28;20215;-77
2021/12/11 10:35:43;;;;;;;7.00;2.40;;;6.30;99.90;;;;;;5052374;28;20228;-77
2021/12/11 10:38:11;;;;;;;11.90;2.30;;;6.40;99.90;;;;;;5053557;28;20227;-78
2021/12/11 10:40:40;;;;;;;7.27;2.60;;;6.40;99.90;;;;;;5052006;28;20302;-77
2021/12/11 10:43:10;;;;;;;7.47;2.37;;;6.50;99.90;;;;;;5051785;28;20211;-77
2021/12/11 10:45:40;;;;;;;8.93;2.23;;;6.60;99.90;;;;;;5051843;28;20211;-77
2021/12/11 10:48:09;;;;;;;6.90;2.30;;;6.70;99.90;;;;;;5062594;28;20216;-77
2021/12/11 10:50:39;;;;;;;5.63;2.23;;;6.80;99.90;;;;;;5072222;28;20203;-77
2021/12/11 10:53:09;;;;;;;5.57;2.20;;;6.80;99.90;;;;;;5072306;28;20207;-77
2021/12/11 10:55:37;;;;;;;11.10;2.13;;;6.80;99.90;;;;;;5071975;28;20213;-77
2021/12/11 10:58:09;;;;;;;9.63;2.60;;;6.80;99.90;;;;;;5071217;28;20230;-77
2021/12/11 11:00:42;;;;;;;7.00;2.20;;;7.00;99.90;;;;;;5071786;28;20222;-77
2021/12/11 11:03:10;;;;;;;12.00;2.10;;;7.00;99.90;;;;;;5069624;28;20200;-77
2021/12/11 11:05:38;;;;;;;7.60;2.00;;;6.90;99.90;;;;;;5072281;28;20199;-76
2021/12/11 11:08:07;;;;;;;5.77;1.93;;;6.90;99.90;;;;;;5059048;28;20235;-76
2021/12/11 11:10:37;;;;;;;7.30;1.90;;;6.90;99.90;;;;;;5051296;28;20243;-77
2021/12/11 11:13:07;;;;;;;4.07;1.80;;;7.00;99.90;;;;;;5051770;28;20208;-77
2021/12/11 11:15:35;;;;;;;7.37;2.03;;;7.10;99.90;;;;;;5051679;28;20204;-77
2021/12/11 11:18:05;;;;;;;8.57;2.13;;;7.10;99.90;;;;;;5051624;28;20224;-76
2021/12/11 11:20:36;;;;;;;13.17;2.30;;;7.20;99.90;;;;;;5051538;28;20207;-77
2021/12/11 11:23:06;;;;;;;12.40;1.83;;;7.20;99.90;;;;;;5051403;28;20207;-77
2021/12/11 23:30:21;;;;;;;9.33;2.00;;;7.10;99.90;;;;;;5095933;23;20300;-77
2021/12/11 23:32:52;;;;;;;6.77;2.80;;;7.00;99.90;;;;;;4916254;29;20659;-76
2021/12/11 23:35:24;;;;;;;10.03;2.37;;;7.00;99.90;;;;;;4910907;29;20201;-76
2021/12/11 23:37:55;;;;;;;7.73;2.10;;;6.90;99.90;;;;;;4915487;29;20243;-76
2021/12/11 23:40:28;;;;;;;10.17;2.53;;;7.00;99.90;;;;;;4915283;29;20201;-77
2021/12/11 23:42:59;;;;;;;5.83;2.40;;;7.00;99.90;;;;;;4914549;29;20210;-76
2021/12/11 23:45:31;;;;;;;9.50;2.30;;;6.90;99.90;;;;;;4897258;29;20219;-77
2021/12/11 23:48:03;;;;;;;7.33;2.13;;;7.00;99.90;;;;;;4897567;29;20233;-77
2021/12/11 23:50:35;;;;;;;7.50;2.20;;;6.90;99.90;;;;;;4911418;29;20288;-76
2021/12/11 23:53:02;;;;;;;9.40;1.93;;;6.90;99.90;;;;;;4911528;29;20202;-76
2021/12/11 23:55:35;;;;;;;7.93;1.60;;;6.80;99.90;;;;;;4914284;29;20673;-77
2021/12/11 23:58:02;;;;;;;4.27;1.90;;;6.70;99.90;;;;;;4914469;29;20233;-76
